Time;durP1;ratioP1;P1;durP2;ratioP2;P2;SDS_P1;SDS_P2;PMS_P1;PMS_P2;Temp;Humidity;BMP_temperature;BMP_pressure;BME280_temperature;BME280_humidity;BME280_pressure;Samples;Min_cycle;Max_cycle;Signal;HPM_P1;HPM_P2
2022/08/14 00:01:08;;;;;;;35.92;33.47;;;;;;;22.56;73.57;100298.69;4998780;28;102155;-57
2022/08/14 00:03:36;;;;;;;36.65;34.15;;;;;;;22.56;73.52;100287.59;4997452;28;103899;-57
2022/08/14 00:06:03;;;;;;;38.77;36.17;;;;;;;22.55;73.32;100291.53;4993972;28;102267;-58
2022/08/14 00:08:30;;;;;;;33.43;31.03;;;;;;;22.55;73.66;100286.00;4997130;28;102237;-57
2022/08/14 00:10:57;;;;;;;35.63;33.22;;;;;;;22.55;73.62;100286.00;5000413;28;102123;-57
2022/08/14 00:13:27;;;;;;;34.90;32.58;;;;;;;22.55;73.60;100292.34;4998118;28;103718;-58
2022/08/14 00:15:57;;;;;;;33.20;30.88;;;;;;;22.55;73.39;100284.03;4996335;28;102410;-57
2022/08/14 00:18:26;;;;;;;36.65;34.22;;;;;;;22.55;73.59;100286.00;4993369;28;102494;-57
2022/08/14 00:20:53;;;;;;;;;;;;;;;22.55;73.33;100280.44;4999232;28;102621;-58
2022/08/14 00:23:20;;;;;;;29.35;27.15;;;;;;;22.56;73.39;100282.03;4998665;28;103893;-57
2022/08/14 00:25:50;;;;;;;32.35;30.10;;;;;;;22.56;73.25;100282.03;4998638;28;102350;-57
2022/08/14 00:28:17;;;;;;;32.47;30.23;;;;;;;22.54;73.67;100285.19;4997618;28;102146;-57
2022/08/14 00:30:45;;;;;;;35.57;33.17;;;;;;;22.55;73.55;100272.91;4999047;28;102146;-57
2022/08/14 00:33:13;;;;;;;33.92;31.65;;;;;;;22.56;73.40;100282.03;4996540;28;104047;-57
2022/08/14 00:35:40;;;;;;;34.43;31.77;;;;;;;22.56;73.37;100282.03;4998743;28;102863;-57
2022/08/14 00:38:06;;;;;;;34.40;32.08;;;;;;;22.55;73.52;100272.91;4995001;28;102291;-60
2022/08/14 00:40:33;;;;;;;35.83;33.38;;;;;;;22.55;73.58;100269.34;4979353;28;102115;-57
2022/08/14 00:43:00;;;;;;;36.22;33.72;;;;;;;22.55;73.34;100269.34;4980058;28;103906;-57
2022/08/14 00:45:27;;;;;;;35.20;32.75;;;;;;;22.55;73.52;100274.91;4997908;28;102564;-57
2022/08/14 00:47:53;;;;;;;31.42;29.33;;;;;;;22.54;73.58;100276.88;4994250;28;102214;-57
2022/08/14 00:50:22;;;;;;;33.28;31.05;;;;;;;22.55;73.69;100266.56;4979420;28;102719;-57
2022/08/14 00:52:51;;;;;;;34.72;32.35;;;;;;;22.55;73.48;100270.16;4978435;28;103899;-57
2022/08/14 00:55:19;;;;;;;33.72;31.40;;;;;;;22.55;73.66;100263.81;4997541;28;101865;-57
2022/08/14 00:58:30;;;;;;;34.97;32.65;;;;;;;22.55;73.51;100280.44;4988028;28;102383;-57
2022/08/14 01:00:39;;;;;;;32.13;29.88;;;;;;;22.55;73.43;100264.59;4994956;28;102192;-57
2022/08/14 01:03:07;;;;;;;36.10;33.70;;;;;;;22.53;73.70;100264.16;4981379;28;103861;-57
2022/08/14 01:05:36;;;;;;;32.65;30.30;;;;;;;22.54;73.60;100263.00;4993174;28;102517;-58
2022/08/14 01:08:05;;;;;;;31.27;29.13;;;;;;;22.55;73.51;100274.91;4994644;28;102298;-57
2022/08/14 01:10:50;;;;;;;35.83;33.35;;;;;;;22.54;73.71;100263.00;4998446;28;102405;-57
2022/08/14 01:13:19;;;;;;;33.17;30.92;;;;;;;22.54;73.63;100260.22;4997643;28;104036;-57
2022/08/14 01:15:48;;;;;;;32.28;30.02;;;;;;;22.54;73.45;100259.44;4986852;28;102484;-57
2022/08/14 01:21:02;;;;;;;30.92;28.80;;;;;;;22.55;73.45;100249.94;4998230;28;102074;-57
2022/08/14 01:23:32;;;;;;;31.90;29.60;;;;;;;22.54;73.57;100234.47;4997693;28;104048;-57
2022/08/14 01:25:59;;;;;;;30.20;28.08;;;;;;;22.54;73.43;100232.50;4997271;28;102460;-58
2022/08/14 01:28:25;;;;;;;33.80;31.52;;;;;;;22.54;73.55;100234.47;4998020;28;101916;-57
2022/08/14 01:30:56;;;;;;;35.03;32.67;;;;;;;22.55;73.55;100236.06;4998365;28;102440;-57
2022/08/14 01:33:27;;;;;;;34.20;31.92;;;;;;;22.54;73.57;100235.28;4997645;28;104585;-57
2022/08/14 01:35:56;;;;;;;31.50;29.35;;;;;;;22.54;73.51;100235.28;4996085;28;102774;-57
2022/08/14 01:38:24;;;;;;;35.20;32.75;;;;;;;22.54;73.40;100234.47;4997810;28;102111;-57
2022/08/14 01:40:52;;;;;;;32.38;30.15;;;;;;;22.54;73.48;100234.47;4998614;28;102583;-57
2022/08/14 01:43:19;;;;;;;35.53;33.17;;;;;;;22.53;73.49;100232.84;4984512;28;104308;-58
2022/08/14 01:45:50;;;;;;;33.72;31.30;;;;;;;22.54;73.42;100226.16;4997143;28;102164;-57
2022/08/14 01:48:16;;;;;;;33.00;30.77;;;;;;;22.53;73.56;100232.84;4997275;28;102232;-57
2022/08/14 01:50:43;;;;;;;36.47;33.83;;;;;;;22.54;73.57;100231.69;4997577;28;102350;-57
2022/08/14 01:53:10;;;;;;;34.53;32.15;;;;;;;22.53;73.70;100239.19;4995996;28;103889;-57
2022/08/14 01:55:39;;;;;;;35.30;32.90;;;;;;;22.53;73.54;100241.97;4997669;28;102436;-57
2022/08/14 01:58:12;;;;;;;34.42;32.08;;;;;;;22.54;73.68;100245.56;4995900;28;102124;-57
2022/08/14 02:00:39;;;;;;;35.97;33.65;;;;;;;22.53;73.64;100243.94;4996510;28;102118;-58
2022/08/14 02:03:06;;;;;;;33.88;31.58;;;;;;;22.53;73.62;100261.38;4996652;28;103890;-56
2022/08/14 02:05:33;;;;;;;34.10;31.80;;;;;;;22.53;73.56;100241.97;4996624;28;102395;-58
2022/08/14 02:08:00;;;;;;;34.17;31.88;;;;;;;22.54;73.64;100243.59;4997331;28;101811;-57
2022/08/14 02:10:34;;;;;;;33.42;31.17;;;;;;;22.53;73.59;100235.63;4997438;28;102205;-57
2022/08/14 02:13:06;;;;;;;32.28;30.02;;;;;;;22.53;73.30;100243.94;4978722;28;103917;-57
2022/08/14 02:15:35;;;;;;;35.45;33.00;;;;;;;22.54;73.54;100245.56;4985224;28;102340;-57
2022/08/14 02:18:03;;;;;;;33.95;31.50;;;;;;;22.54;73.52;100245.56;4996289;28;102408;-57
2022/08/14 02:20:33;;;;;;;32.60;30.42;;;;;;;22.54;73.61;100245.56;4996820;28;102158;-58
2022/08/14 02:23:00;;;;;;;32.47;30.20;;;;;;;22.53;73.90;100247.50;4996644;28;104065;-57
2022/08/14 02:25:26;;;;;;;33.55;31.35;;;;;;;22.54;73.51;100242.78;4996723;28;102149;-57
2022/08/14 02:27:56;;;;;;;35.88;33.28;;;;;;;22.54;73.70;100246.38;4996969;28;102248;-57
2022/08/14 02:30:23;;;;;;;34.35;31.92;;;;;;;22.53;73.79;100243.94;4989646;28;102273;-57
2022/08/14 02:32:52;;;;;;;34.03;31.73;;;;;;;22.54;73.67;100248.34;4996399;28;103945;-57
2022/08/14 02:35:19;;;;;;;32.10;30.00;;;;;;;22.54;73.67;100248.34;4987378;28;102526;-57
2022/08/14 02:37:46;;;;;;;33.47;31.20;;;;;;;22.54;73.76;100251.13;4977755;28;102211;-57
2022/08/14 02:40:14;;;;;;;32.08;29.90;;;;;;;22.53;73.66;100249.50;4995931;28;102221;-57
2022/08/14 02:42:40;;;;;;;30.43;28.10;;;;;;;22.54;73.48;100245.56;4984924;28;103904;-57
2022/08/14 02:45:08;;;;;;;30.80;28.70;;;;;;;22.53;73.74;100232.84;4996562;28;101931;-57
2022/08/14 02:47:35;;;;;;;33.53;31.23;;;;;;;22.54;73.62;100237.25;4995912;28;102494;-57
2022/08/14 02:50:03;;;;;;;32.67;30.48;;;;;;;22.52;73.66;100229.28;4997260;28;102595;-57
2022/08/14 02:52:30;;;;;;;31.95;29.75;;;;;;;22.52;73.58;100232.06;4996487;28;104312;-57
2022/08/14 02:54:56;;;;;;;32.63;30.25;;;;;;;22.52;73.61;100236.78;4993851;28;102516;-57
2022/08/14 02:57:23;;;;;;;31.98;29.80;;;;;;;22.53;73.61;100241.16;4995645;28;102383;-57
2022/08/14 02:59:50;;;;;;;30.77;28.65;;;;;;;22.53;73.70;100236.41;4997951;28;102272;-57
2022/08/14 03:02:17;;;;;;;33.47;31.20;;;;;;;22.53;73.85;100243.94;4995075;28;104062;-57
2022/08/14 03:04:43;;;;;;;32.72;30.55;;;;;;;22.53;73.91;100249.50;4991885;28;102484;-57
2022/08/14 03:07:11;;;;;;;32.90;30.70;;;;;;;22.52;73.78;100239.56;4992082;28;102178;-57
2022/08/14 03:09:38;;;;;;;32.55;30.38;;;;;;;22.53;73.66;100239.19;4997098;28;102445;-57
2022/08/14 03:12:05;;;;;;;34.10;31.77;;;;;;;22.54;73.68;100240.03;4995363;28;104010;-58
2022/08/14 03:14:36;;;;;;;32.63;30.45;;;;;;;22.52;73.66;100229.28;4995791;28;102052;-57
2022/08/14 03:17:02;;;;;;;32.88;30.65;;;;;;;22.52;73.78;100226.50;4985889;28;102106;-57
2022/08/14 03:19:29;;;;;;;32.05;29.80;;;;;;;22.52;73.61;100232.06;4976537;28;102110;-57
2022/08/14 03:21:56;;;;;;;32.75;30.60;;;;;;;22.52;73.53;100214.63;4994308;28;103854;-57
2022/08/14 03:24:24;;;;;;;31.95;29.77;;;;;;;22.52;73.54;100220.97;4996599;28;102095;-57
2022/08/14 03:26:51;;;;;;;36.63;34.30;;;;;;;22.52;73.63;100209.88;4994674;28;102193;-57
2022/08/14 03:29:19;;;;;;;33.30;30.80;;;;;;;22.52;73.68;100204.31;4996617;28;102237;-57
2022/08/14 03:31:50;;;;;;;31.23;29.08;;;;;;;22.52;73.71;100203.53;4995261;28;103890;-57
2022/08/14 03:34:17;;;;;;;30.13;28.05;;;;;;;22.53;73.77;100205.13;4994198;28;102387;-57
2022/08/14 03:36:44;;;;;;;34.80;32.47;;;;;;;22.53;73.76;100199.56;4990127;28;102170;-57
2022/08/14 03:39:11;;;;;;;33.13;30.92;;;;;;;22.53;73.73;100199.56;4997172;28;102305;-57
2022/08/14 03:41:40;;;;;;;33.35;31.08;;;;;;;22.52;73.78;100197.97;4990841;28;103949;-57
2022/08/14 03:44:06;;;;;;;29.65;27.65;;;;;;;22.53;73.72;100199.56;4988325;28;102399;-57
2022/08/14 03:46:35;;;;;;;33.90;31.73;;;;;;;22.52;73.63;100201.53;4995653;28;102014;-57
2022/08/14 03:49:04;;;;;;;35.53;33.28;;;;;;;22.52;73.74;100197.97;4995720;28;102654;-57
2022/08/14 03:51:31;;;;;;;33.42;31.10;;;;;;;22.52;73.81;100189.66;4988264;28;104121;-57
2022/08/14 03:54:00;;;;;;;32.72;30.63;;;;;;;22.52;73.86;100186.88;4995247;28;102123;-57
2022/08/14 03:56:28;;;;;;;32.67;30.25;;;;;;;22.52;73.87;100182.13;4995105;28;102546;-57
2022/08/14 03:58:59;;;;;;;32.03;29.80;;;;;;;22.52;73.78;100175.78;4997310;28;102183;-57
2022/08/14 04:01:26;;;;;;;31.67;29.52;;;;;;;22.53;73.82;100188.47;4986882;28;107990;-56
2022/08/14 04:03:56;;;;;;;30.58;28.63;;;;;;;22.52;73.77;100176.59;4995744;28;102273;-57
2022/08/14 04:06:23;;;;;;;33.55;31.40;;;;;;;22.52;73.75;100167.47;4994433;28;102169;-56
2022/08/14 04:08:51;;;;;;;35.80;33.53;;;;;;;22.52;73.86;100170.25;4996147;28;102292;-57
2022/08/14 04:11:18;;;;;;;31.95;29.83;;;;;;;22.52;74.00;100167.47;4994328;28;103928;-57
2022/08/14 04:13:47;;;;;;;31.45;29.40;;;;;;;22.53;73.79;100166.28;4996430;28;102207;-58
2022/08/14 04:16:22;;;;;;;31.33;29.30;;;;;;;22.53;73.63;100172.63;4994063;28;102221;-57
2022/08/14 04:18:51;;;;;;;32.05;29.85;;;;;;;22.53;74.08;100175.41;4996291;28;102085;-57
2022/08/14 04:21:23;;;;;;;33.83;31.35;;;;;;;22.53;73.85;100180.97;4993837;28;103341;-57
2022/08/14 04:23:51;;;;;;;31.30;29.33;;;;;;;22.53;73.87;100188.47;4995505;28;102559;-57
2022/08/14 04:26:21;;;;;;;31.13;29.00;;;;;;;22.53;73.76;100171.84;4994859;28;102376;-57
2022/08/14 04:28:49;;;;;;;33.80;31.50;;;;;;;22.53;73.84;100178.19;4996524;28;102146;-57
2022/08/14 04:31:18;;;;;;;30.92;28.98;;;;;;;22.53;73.84;100183.72;4992843;28;104518;-58
2022/08/14 04:33:45;;;;;;;31.83;29.77;;;;;;;22.54;73.77;100173.47;4986175;28;102564;-58
2022/08/14 04:36:12;;;;;;;32.65;30.55;;;;;;;22.55;73.66;100172.28;4986217;28;102311;-57
2022/08/14 04:44:19;;;;;;;28.13;26.30;;;;;;;22.54;73.83;100179.00;4959682;28;102615;-57
2022/08/14 04:49:52;;;;;;;30.52;28.45;;;;;;;22.54;73.78;100179.81;4975304;28;102646;-57
2022/08/14 04:52:19;;;;;;;32.20;30.15;;;;;;;22.55;73.74;100189.72;4974782;28;103937;-57
2022/08/14 04:54:45;;;;;;;35.47;33.25;;;;;;;22.55;74.04;100192.50;4976809;28;102057;-57
2022/08/14 04:57:13;;;;;;;32.13;29.98;;;;;;;22.56;73.82;100196.06;4984143;28;102025;-57
2022/08/14 04:59:40;;;;;;;32.97;30.83;;;;;;;22.56;73.81;100196.06;4998852;28;102557;-56
2022/08/14 05:02:08;;;;;;;31.75;29.73;;;;;;;22.58;73.59;100207.63;4987831;28;104259;-56
2022/08/14 05:04:35;;;;;;;33.95;31.85;;;;;;;22.59;73.66;100208.41;4995888;28;103658;-57
2022/08/14 05:07:01;;;;;;;33.35;31.20;;;;;;;22.59;73.66;100212.00;4983288;28;102172;-57
2022/08/14 05:09:28;;;;;;;30.83;28.85;;;;;;;22.60;73.85;100204.47;4992730;28;102981;-57
2022/08/14 05:11:54;;;;;;;31.85;29.60;;;;;;;22.59;73.51;100217.53;4996728;28;104058;-57
2022/08/14 05:14:22;;;;;;;30.88;28.80;;;;;;;22.61;73.42;100206.06;4996967;28;102185;-57
2022/08/14 05:16:48;;;;;;;32.50;30.17;;;;;;;22.61;73.55;100218.00;4997567;28;102336;-57
2022/08/14 05:19:16;;;;;;;32.60;30.38;;;;;;;22.62;73.60;100232.66;4997752;28;102312;-57
2022/08/14 05:21:42;;;;;;;33.47;31.03;;;;;;;22.62;73.62;100216.81;4997507;28;103998;-57
2022/08/14 05:24:11;;;;;;;32.38;30.27;;;;;;;22.62;73.64;100219.59;4997289;28;102618;-57
2022/08/14 05:26:40;;;;;;;30.85;28.92;;;;;;;22.62;73.62;100214.03;4995795;28;102198;-57
2022/08/14 05:29:08;;;;;;;33.40;31.08;;;;;;;22.62;73.62;100214.03;4995741;28;102190;-57
2022/08/14 05:31:39;;;;;;;30.77;28.80;;;;;;;22.62;73.67;100225.13;4986469;28;103881;-57
2022/08/14 05:34:06;;;;;;;34.88;32.47;;;;;;;22.62;73.45;100216.81;4993544;28;102019;-58
2022/08/14 05:36:34;;;;;;;32.85;30.63;;;;;;;22.65;73.52;100224.41;4995985;28;102730;-57
2022/08/14 05:39:01;;;;;;;33.53;31.03;;;;;;;22.66;73.59;100214.91;4998497;28;102127;-57
2022/08/14 05:41:27;;;;;;;33.22;30.88;;;;;;;22.67;73.48;100210.16;4996423;28;103932;-57
2022/08/14 05:43:54;;;;;;;32.92;30.60;;;;;;;22.66;73.56;100211.34;4994898;28;102416;-57
2022/08/14 05:46:21;;;;;;;35.03;32.65;;;;;;;22.66;73.39;100208.56;4996052;28;102170;-57
2022/08/14 05:48:49;;;;;;;35.20;32.72;;;;;;;22.67;73.36;100210.16;4985278;28;103135;-57
2022/08/14 05:51:16;;;;;;;35.30;32.93;;;;;;;22.67;73.43;100205.41;4982272;28;104074;-58
2022/08/14 05:53:44;;;;;;;35.97;33.38;;;;;;;22.67;73.51;100204.63;4995813;28;102251;-57
2022/08/14 05:56:10;;;;;;;40.53;37.65;;;;;;;22.67;73.47;100202.63;4997227;28;102047;-57
2022/08/14 05:58:37;;;;;;;37.22;34.63;;;;;;;22.69;73.54;100202.28;4994375;28;102459;-57
2022/08/14 06:01:04;;;;;;;37.50;34.75;;;;;;;22.70;73.70;100203.88;4983092;28;103887;-57
2022/08/14 06:03:31;;;;;;;37.03;34.50;;;;;;;22.69;73.44;100197.53;4988124;28;102279;-57
2022/08/14 06:05:57;;;;;;;35.22;32.60;;;;;;;22.71;73.66;100197.97;4986613;28;104271;-57
2022/08/14 06:08:27;;;;;;;36.70;34.17;;;;;;;22.73;73.81;100187.31;4996719;28;102506;-57
2022/08/14 06:11:01;;;;;;;39.88;37.08;;;;;;;22.75;73.75;100190.50;4993357;28;104130;-57
2022/08/14 06:13:28;;;;;;;35.03;32.45;;;;;;;22.78;73.47;100205.63;4996706;28;102189;-57
2022/08/14 06:15:55;;;;;;;34.50;32.22;;;;;;;22.81;73.56;100193.00;4990800;28;102159;-58
2022/08/14 06:18:21;;;;;;;35.63;33.03;;;;;;;22.82;73.39;100194.59;4997568;28;102240;-57
2022/08/14 06:20:48;;;;;;;36.58;33.78;;;;;;;22.85;73.26;100199.41;4995615;28;104080;-58
2022/08/14 06:23:15;;;;;;;38.10;35.53;;;;;;;22.85;73.30;100199.41;4992821;28;101989;-57
2022/08/14 06:25:43;;;;;;;34.50;32.08;;;;;;;22.86;73.32;100199.03;4988038;28;102204;-57
2022/08/14 06:28:17;;;;;;;34.53;32.13;;;;;;;22.88;73.29;100204.25;4996750;28;103197;-57
2022/08/14 06:30:43;;;;;;;34.10;31.75;;;;;;;22.89;73.32;100195.53;4994445;28;103928;-58
2022/08/14 06:33:10;;;;;;;35.58;32.45;;;;;;;22.94;73.24;100202.81;4996241;28;102199;-57
2022/08/14 06:35:36;;;;;;;37.08;34.45;;;;;;;22.95;73.07;100205.19;4982843;28;102347;-57
2022/08/14 06:38:03;;;;;;;37.58;34.42;;;;;;;22.93;73.13;100207.53;4986473;28;102394;-57
2022/08/14 06:40:31;;;;;;;37.95;35.38;;;;;;;22.94;73.28;100203.59;4987244;28;104052;-57
2022/08/14 06:43:00;;;;;;;37.60;34.92;;;;;;;22.95;73.17;100196.06;4997428;28;102094;-57
2022/08/14 06:45:28;;;;;;;35.75;33.38;;;;;;;22.95;73.24;100198.84;4993094;28;101882;-57
2022/08/14 06:47:55;;;;;;;38.15;35.50;;;;;;;22.95;73.24;100210.75;4985856;28;102291;-57
2022/08/14 06:50:22;;;;;;;37.00;34.28;;;;;;;22.95;73.26;100205.19;4985866;28;103986;-57
2022/08/14 06:52:49;;;;;;;39.28;36.63;;;;;;;22.96;73.43;100200.44;4992014;28;103098;-57
2022/08/14 06:55:19;;;;;;;37.58;35.08;;;;;;;22.97;73.19;100207.59;4992922;28;102148;-58
2022/08/14 06:57:48;;;;;;;39.95;37.22;;;;;;;23.00;73.15;100212.41;4997516;28;102203;-57
2022/08/14 07:00:17;;;;;;;;;;;;;;;23.01;73.18;100214.03;4995337;28;103993;-57
2022/08/14 07:05:49;;;;;;;36.60;33.75;;;;;;;22.99;73.49;100206.06;4988175;28;102067;-58
2022/08/14 07:08:17;;;;;;;35.15;32.40;;;;;;;22.97;73.27;100202.88;4981839;28;102386;-57
2022/08/14 07:10:45;;;;;;;35.75;32.95;;;;;;;22.99;73.29;100205.28;4994299;28;103840;-57
2022/08/14 07:13:13;;;;;;;36.35;33.65;;;;;;;22.99;73.26;100200.50;4994501;28;102324;-57
2022/08/14 07:15:40;;;;;;;35.15;32.70;;;;;;;22.99;73.21;100199.72;4993860;28;102739;-58
2022/08/14 07:18:10;;;;;;;37.27;34.17;;;;;;;22.99;73.37;100200.50;4996865;28;102224;-57
2022/08/14 07:20:38;;;;;;;38.47;35.60;;;;;;;23.00;73.45;100196.56;4984136;28;104098;-58
2022/08/14 07:23:06;;;;;;;41.25;38.20;;;;;;;23.00;73.31;100201.31;4995833;28;101932;-57
2022/08/14 07:25:34;;;;;;;38.40;35.33;;;;;;;23.00;73.21;100198.53;4995156;28;102362;-57
2022/08/14 07:28:07;;;;;;;42.05;38.88;;;;;;;23.00;73.43;100190.22;4990673;28;103810;-57
2022/08/14 07:30:35;;;;;;;43.00;40.03;;;;;;;23.00;73.27;100190.22;4994094;28;103937;-57
2022/08/14 07:33:02;;;;;;;42.75;39.65;;;;;;;23.00;73.27;100184.66;4996041;28;102241;-57
2022/08/14 07:35:30;;;;;;;38.17;35.38;;;;;;;22.98;73.31;100185.03;4992762;28;102505;-57
2022/08/14 07:37:57;;;;;;;38.25;35.47;;;;;;;22.99;73.12;100188.63;4995025;28;102545;-57
2022/08/14 07:40:24;;;;;;;41.25;38.25;;;;;;;22.99;73.35;100192.19;4995579;28;104145;-58
2022/08/14 07:42:50;;;;;;;39.83;36.78;;;;;;;22.98;73.21;100198.91;4994690;28;102290;-57
2022/08/14 07:45:16;;;;;;;40.83;37.92;;;;;;;22.98;73.21;100189.78;4978929;28;102394;-57
2022/08/14 07:47:43;;;;;;;38.63;35.92;;;;;;;22.98;73.51;100187.81;4996800;28;102267;-57
2022/08/14 07:50:13;;;;;;;40.80;37.78;;;;;;;22.98;73.27;100187.03;4994665;28;103946;-58
2022/08/14 07:52:41;;;;;;;40.30;37.50;;;;;;;22.97;73.35;100202.03;4993753;28;102760;-58
2022/08/14 07:55:09;;;;;;;35.63;33.13;;;;;;;22.98;73.41;100192.56;4994788;28;102282;-57
2022/08/14 07:57:38;;;;;;;36.22;33.50;;;;;;;22.99;73.05;100194.16;4995959;28;102421;-57
2022/08/14 08:00:09;;;;;;;37.60;34.80;;;;;;;23.00;73.24;100187.44;4991574;28;103871;-57
2022/08/14 08:02:38;;;;;;;35.67;32.85;;;;;;;23.01;73.02;100192.63;4995584;28;101995;-57
2022/08/14 08:05:07;;;;;;;37.90;35.25;;;;;;;23.01;73.06;100192.63;4993906;28;102439;-57
2022/08/14 08:07:39;;;;;;;40.92;37.95;;;;;;;23.01;73.03;100184.31;4994127;28;102610;-57
2022/08/14 08:12:58;;;;;;;37.20;34.50;;;;;;;23.03;73.13;100186.72;4996338;28;102404;-57
2022/08/14 08:15:27;;;;;;;36.50;33.78;;;;;;;23.02;72.97;100183.13;4997069;28;102394;-57
2022/08/14 08:17:54;;;;;;;38.77;36.03;;;;;;;23.02;73.17;100182.34;4998937;28;102199;-58
2022/08/14 08:20:26;;;;;;;40.42;37.47;;;;;;;23.04;73.10;100179.97;4996405;28;104022;-57
2022/08/14 08:22:55;;;;;;;41.72;38.67;;;;;;;23.06;72.86;100182.41;4999593;28;102330;-57
2022/08/14 08:25:24;;;;;;;38.40;35.65;;;;;;;23.06;73.00;100174.88;4997783;28;102092;-57
2022/08/14 08:27:53;;;;;;;;;;;;;;;23.09;72.84;100170.56;4998952;28;103439;-57
2022/08/14 08:30:20;;;;;;;29.77;27.10;;;;;;;23.10;72.74;100167.41;4996343;28;103911;-57
2022/08/14 08:32:48;;;;;;;36.50;33.38;;;;;;;23.14;72.78;100173.03;4988007;28;102329;-57
2022/08/14 08:35:22;;;;;;;40.35;36.88;;;;;;;23.14;72.69;100165.50;4992134;28;102164;-57
2022/08/14 08:37:49;;;;;;;40.33;37.22;;;;;;;23.14;72.61;100168.28;4998077;28;102441;-58
2022/08/14 08:40:24;;;;;;;41.58;38.53;;;;;;;23.14;72.45;100162.72;4995826;28;103923;-57
2022/08/14 08:42:51;;;;;;;39.72;36.75;;;;;;;23.15;72.59;100169.91;4995004;28;102348;-57
2022/08/14 08:45:19;;;;;;;45.88;42.80;;;;;;;23.17;72.62;100161.97;4994615;28;103182;-56
2022/08/14 08:47:46;;;;;;;40.05;37.25;;;;;;;23.18;72.30;100158.03;4998432;28;102169;-57
2022/08/14 08:50:19;;;;;;;40.22;37.33;;;;;;;23.19;72.17;100154.09;4994631;28;104038;-57
2022/08/14 08:52:48;;;;;;;41.00;37.75;;;;;;;23.19;72.17;100159.66;4998166;28;102458;-57
2022/08/14 08:55:15;;;;;;;42.67;39.60;;;;;;;23.19;72.28;100150.53;4996379;28;102158;-57
2022/08/14 08:57:42;;;;;;;40.53;37.38;;;;;;;23.18;72.23;100158.03;4996694;28;102529;-57
2022/08/14 09:00:14;;;;;;;41.73;38.60;;;;;;;23.19;72.23;100159.66;4995837;28;103892;-57
2022/08/14 09:02:51;;;;;;;38.50;35.70;;;;;;;23.20;72.10;100164.03;4990936;28;101992;-57
2022/08/14 09:05:17;;;;;;;45.10;41.85;;;;;;;23.20;72.18;100161.25;4996579;28;102797;-57
2022/08/14 09:07:44;;;;;;;42.72;39.60;;;;;;;23.19;72.09;100148.56;4993792;28;102337;-57
2022/08/14 09:10:10;;;;;;;42.03;38.88;;;;;;;23.21;71.92;100150.94;4994715;28;103950;-60
2022/08/14 09:12:38;;;;;;;44.28;40.83;;;;;;;23.22;71.75;100146.97;4990486;28;102271;-58
2022/08/14 09:15:08;;;;;;;40.70;37.67;;;;;;;23.23;71.95;100143.84;4986849;28;102018;-57
2022/08/14 09:17:35;;;;;;;43.63;40.35;;;;;;;23.21;71.88;100146.19;4995959;28;103640;-58
2022/08/14 09:20:03;;;;;;;47.08;43.47;;;;;;;23.21;71.70;100145.38;4977136;28;103941;-57
2022/08/14 09:22:30;;;;;;;44.40;41.33;;;;;;;23.21;71.66;100143.41;4986973;28;102323;-57
2022/08/14 09:24:58;;;;;;;38.35;35.33;;;;;;;23.21;71.77;100128.72;4990263;28;102666;-57
2022/08/14 09:27:24;;;;;;;44.67;41.47;;;;;;;23.22;71.77;100133.09;4995561;28;102218;-57
2022/08/14 09:29:51;;;;;;;48.15;44.72;;;;;;;23.21;71.72;100128.72;4988427;28;103978;-57
2022/08/14 09:32:27;;;;;;;45.03;42.05;;;;;;;23.20;71.85;100130.72;4982778;28;102885;-57
2022/08/14 09:35:08;;;;;;;44.28;41.00;;;;;;;23.20;71.83;100127.94;4981385;28;102386;-57
2022/08/14 09:37:52;;;;;;;40.58;37.45;;;;;;;23.22;71.84;100130.31;4982027;28;102155;-56
2022/08/14 09:40:26;;;;;;;43.03;39.78;;;;;;;23.23;71.26;100127.19;4977114;28;104029;-57
2022/08/14 09:43:03;;;;;;;46.60;42.85;;;;;;;23.21;71.57;100123.97;4986271;28;102261;-57
2022/08/14 09:45:34;;;;;;;41.58;37.95;;;;;;;23.24;71.92;100123.25;4979416;28;102341;-57
2022/08/14 09:48:13;;;;;;;43.70;39.97;;;;;;;23.24;71.79;100116.91;4981206;28;102735;-57
2022/08/14 09:50:45;;;;;;;41.05;37.95;;;;;;;23.21;71.82;100121.19;4976683;28;103856;-57
2022/08/14 09:53:16;;;;;;;43.80;40.65;;;;;;;23.23;71.83;100121.66;4993689;28;102517;-57
2022/08/14 09:55:43;;;;;;;42.15;38.80;;;;;;;23.24;71.71;100122.44;4989881;28;102075;-57
2022/08/14 09:58:12;;;;;;;42.20;39.22;;;;;;;23.26;71.91;100122.84;4984763;28;102603;-57
2022/08/14 10:00:44;;;;;;;;;;;;;;;23.25;71.60;100113.72;4992885;28;104061;-57
2022/08/14 10:03:25;;;;;;;34.42;31.35;;;;;;;23.21;71.61;100112.88;4996834;28;102132;-57
2022/08/14 10:06:03;;;;;;;37.03;34.47;;;;;;;23.22;72.18;100125.59;4991046;28;102412;-57
2022/08/14 10:08:40;;;;;;;40.60;37.78;;;;;;;23.25;71.93;100124.84;4994287;28;102008;-57
2022/08/14 10:11:16;;;;;;;41.20;38.22;;;;;;;23.26;71.73;100123.69;4984169;28;103950;-57
2022/08/14 10:13:43;;;;;;;42.10;38.92;;;;;;;23.26;71.90;100120.91;4982955;28;103560;-57
2022/08/14 10:16:10;;;;;;;44.03;40.63;;;;;;;23.24;71.88;100131.56;4990703;28;101984;-57
2022/08/14 10:18:38;;;;;;;44.25;41.17;;;;;;;23.25;71.86;100124.84;4993534;28;102944;-56
2022/08/14 10:21:08;;;;;;;43.30;40.47;;;;;;;23.26;71.89;100125.63;4988033;28;104002;-57
2022/08/14 10:23:41;;;;;;;38.50;35.40;;;;;;;23.26;71.64;100123.69;4991873;28;102369;-57
2022/08/14 10:26:09;;;;;;;37.70;35.10;;;;;;;23.22;71.62;100122.00;4994458;28;101964;-57
2022/08/14 10:28:41;;;;;;;42.25;39.33;;;;;;;23.32;71.55;100106.69;4998532;28;102165;-57
2022/08/14 10:31:19;;;;;;;38.30;35.25;;;;;;;23.44;70.97;100106.47;4995474;28;103820;-57
2022/08/14 10:34:03;;;;;;;37.38;34.75;;;;;;;23.46;70.58;100107.72;4997045;28;102142;-57
2022/08/14 10:36:34;;;;;;;38.88;35.78;;;;;;;23.48;70.56;100102.59;4994296;28;102044;-57
2022/08/14 10:39:03;;;;;;;37.47;34.25;;;;;;;23.54;70.20;100097.53;4997032;28;102139;-57
2022/08/14 10:41:38;;;;;;;33.65;30.83;;;;;;;23.57;70.25;100102.31;4996872;28;103874;-57
2022/08/14 10:44:08;;;;;;;37.00;33.92;;;;;;;23.61;69.97;100103.19;4997680;28;102321;-58
2022/08/14 10:46:44;;;;;;;32.97;30.20;;;;;;;23.60;69.81;100107.13;4996713;28;102346;-57
2022/08/14 10:49:20;;;;;;;31.52;28.92;;;;;;;23.61;69.83;100103.19;4993543;28;102187;-57
2022/08/14 10:52:04;;;;;;;30.42;27.75;;;;;;;23.59;69.70;100102.78;4981974;28;103841;-57
2022/08/14 10:54:34;;;;;;;28.95;26.35;;;;;;;23.61;69.15;100105.97;4995319;28;102067;-57
2022/08/14 10:57:17;;;;;;;27.30;24.92;;;;;;;23.61;69.13;100105.97;4988014;28;102059;-57
2022/08/14 10:59:48;;;;;;;26.73;23.98;;;;;;;23.63;69.28;100105.59;4987439;28;102141;-56
2022/08/14 11:02:19;;;;;;;27.88;25.67;;;;;;;23.62;69.46;100099.25;4993739;28;104035;-57
2022/08/14 11:05:07;;;;;;;25.90;23.60;;;;;;;23.62;69.04;100096.47;4987707;28;102136;-57
2022/08/14 11:07:35;;;;;;;;;;;;;;;23.63;69.02;100092.50;4995527;28;102042;-57
2022/08/14 11:10:05;;;;;;;21.17;19.00;;;;;;;23.62;69.01;100096.47;4990257;28;102299;-57
2022/08/14 11:12:45;;;;;;;24.00;21.45;;;;;;;23.58;68.84;100081.69;4991742;28;104031;-58
2022/08/14 11:15:12;;;;;;;21.65;19.55;;;;;;;23.60;69.10;100068.25;4987243;28;102372;-57
2022/08/14 11:17:39;;;;;;;23.65;21.58;;;;;;;23.60;68.67;100076.59;4996939;28;101922;-57
2022/08/14 11:20:09;;;;;;;23.10;21.00;;;;;;;23.61;68.68;100075.41;4992651;28;102177;-57
2022/08/14 11:22:40;;;;;;;19.23;17.27;;;;;;;23.63;68.51;100077.81;4994313;28;104113;-57
2022/08/14 11:25:09;;;;;;;20.45;17.35;;;;;;;23.61;68.53;100072.63;4996944;28;102409;-58
2022/08/14 11:27:38;;;;;;;20.05;18.00;;;;;;;23.64;68.30;100069.09;4997388;28;102491;-57